| time (UTC) | temp F | wind direction | speed knots | gust knots | rain 1hr in | rain 24hr in | rain mn in | humidity % | barometer mb |
| 20260507095314 | 53 | 0 | 0.0 | 0.0 | 0.00 | 0.00 | 0.00 | 86 | 1014.1 |
| 20260507094809 | 53 | 293 | 0.9 | 0.9 | 0.00 | 0.00 | 0.00 | 86 | 1014.2 |
| 20260507094304 | 54 | 338 | 0.0 | 0.0 | 0.00 | 0.00 | 0.00 | 86 | 1014.2 |
| 20260507093753 | 54 | 203 | 0.0 | 0.0 | 0.00 | 0.00 | 0.00 | 86 | 1014.3 |
| 20260507093249 | 54 | 248 | 0.0 | 0.0 | 0.00 | 0.00 | 0.00 | 86 | 1014.3 |
| 20260507092744 | 54 | 90 | 0.0 | 0.0 | 0.00 | 0.00 | 0.00 | 86 | 1014.3 |
| 20260507092239 | 55 | 113 | 0.0 | 0.0 | 0.00 | 0.00 | 0.00 | 86 | 1014.3 |
| 20260507091734 | 55 | 158 | 1.7 | 1.7 | 0.00 | 0.00 | 0.00 | 86 | 1014.3 |
| 20260507090719 | 55 | 180 | 1.7 | 1.7 | 0.00 | 0.00 | 0.00 | 83 | 1014.5 |
| 20260507085204 | 55 | 203 | 0.0 | 0.0 | 0.00 | 0.00 | 0.00 | 83 | 1014.6 |
| 20260507084149 | 54 | 293 | 0.0 | 0.0 | 0.00 | 0.00 | 0.00 | 83 | 1014.7 |
| 20260507083644 | 54 | 225 | 0.0 | 0.0 | 0.00 | 0.00 | 0.00 | 83 | 1014.8 |
| 20260507083139 | 54 | 248 | 0.0 | 0.0 | 0.00 | 0.00 | 0.00 | 83 | 1014.8 |
| 20260507082634 | 55 | 225 | 0.0 | 0.0 | 0.00 | 0.00 | 0.00 | 82 | 1014.8 |
| 20260507082124 | 55 | 203 | 0.0 | 0.0 | 0.00 | 0.00 | 0.00 | 82 | 1014.9 |
| 20260507081619 | 55 | 203 | 0.0 | 0.0 | 0.00 | 0.00 | 0.00 | 82 | 1014.9 |
| 20260507081114 | 54 | 225 | 0.0 | 0.0 | 0.00 | 0.00 | 0.00 | 83 | 1014.9 |
| 20260507080104 | 55 | 23 | 0.0 | 0.0 | 0.00 | 0.00 | 0.00 | 81 | 1014.9 |
| 20260507075554 | 55 | 113 | 0.0 | 0.0 | 0.00 | 0.00 | 0.00 | 79 | 1014.9 |
| 20260507075049 | 55 | 293 | 0.0 | 0.0 | 0.00 | 0.00 | 0.00 | 79 | 1014.9 |
| 20260507074544 | 55 | 293 | 0.9 | 0.9 | 0.00 | 0.00 | 0.00 | 79 | 1014.9 |
| 20260507074039 | 55 | 248 | 0.0 | 0.0 | 0.00 | 0.00 | 0.00 | 78 | 1014.9 |
| 20260507073024 | 55 | 315 | 0.0 | 0.0 | 0.00 | 0.00 | 0.00 | 78 | 1015.0 |
| 20260507072519 | 55 | 315 | 0.0 | 0.0 | 0.00 | 0.00 | 0.00 | 78 | 1015.1 |
| 20260507071509 | 56 | 225 | 0.0 | 0.0 | 0.00 | 0.00 | 0.00 | 77 | 1015.1 |
| 20260507071004 | 56 | 248 | 0.0 | 0.0 | 0.00 | 0.00 | 0.00 | 76 | 1015.1 |
| 20260507065949 | 56 | 315 | 1.7 | 1.7 | 0.00 | 0.00 | 0.00 | 76 | 1015.1 |
| 20260507065444 | 57 | 225 | 0.0 | 0.0 | 0.00 | 0.00 | 0.00 | 75 | 1015.1 |
| 20260507064434 | 57 | 315 | 1.7 | 1.7 | 0.00 | 0.00 | 0.00 | 76 | 1015.1 |
| 20260507063924 | 57 | 338 | 1.7 | 1.7 | 0.00 | 0.00 | 0.00 | 76 | 1015.1 |
| 20260507063419 | 57 | 248 | 0.9 | 0.9 | 0.00 | 0.00 | 0.00 | 75 | 1015.2 |
| 20260507062914 | 57 | 45 | 0.0 | 0.0 | 0.00 | 0.00 | 0.00 | 75 | 1015.2 |
| 20260507062409 | 57 | 315 | 2.6 | 2.6 | 0.00 | 0.00 | 0.00 | 75 | 1015.1 |
| 20260507061354 | 57 | 248 | 1.7 | 1.7 | 0.00 | 0.00 | 0.00 | 76 | 1015.2 |
| 20260507060849 | 57 | 270 | 2.6 | 2.6 | 0.00 | 0.00 | 0.00 | 76 | 1015.2 |
| 20260507060344 | 57 | 293 | 3.5 | 3.5 | 0.00 | 0.00 | 0.00 | 77 | 1015.2 |
| 20260507055839 | 57 | 248 | 3.5 | 3.5 | 0.00 | 0.00 | 0.00 | 77 | 1015.2 |
| 20260507055329 | 56 | 270 | 3.5 | 3.5 | 0.00 | 0.00 | 0.00 | 77 | 1015.2 |
| 20260507054824 | 56 | 293 | 3.5 | 3.5 | 0.00 | 0.00 | 0.00 | 77 | 1015.1 |
| 20260507054319 | 56 | 0 | 4.3 | 4.3 | 0.00 | 0.00 | 0.00 | 77 | 1015.1 |
| 20260507053814 | 56 | 315 | 3.5 | 3.5 | 0.00 | 0.00 | 0.00 | 77 | 1015.2 |
| 20260507052804 | 56 | 338 | 3.5 | 3.5 | 0.00 | 0.00 | 0.00 | 77 | 1015.2 |
| 20260507052254 | 56 | 315 | 2.6 | 2.6 | 0.00 | 0.00 | 0.00 | 77 | 1015.2 |
| 20260507051749 | 57 | 293 | 1.7 | 1.7 | 0.00 | 0.00 | 0.00 | 76 | 1015.2 |
| 20260507051244 | 57 | 293 | 2.6 | 2.6 | 0.00 | 0.00 | 0.00 | 76 | 1015.1 |
| 20260507050739 | 57 | 270 | 2.6 | 2.6 | 0.00 | 0.00 | 0.00 | 76 | 1015.1 |
| 20260507050229 | 57 | 248 | 3.5 | 3.5 | 0.00 | 0.00 | 0.00 | 76 | 1015.1 |
| 20260507045724 | 56 | 270 | 3.5 | 3.5 | 0.00 | 0.00 | 0.00 | 76 | 1015.1 |
| 20260507045219 | 56 | 338 | 2.6 | 2.6 | 0.00 | 0.00 | 0.00 | 76 | 1015.1 |
| 20260507044714 | 56 | 90 | 0.9 | 0.9 | 0.00 | 0.00 | 0.00 | 76 | 1015.1 |
| 20260507044209 | 57 | 315 | 0.9 | 0.9 | 0.00 | 0.00 | 0.00 | 75 | 1015.1 |
| 20260507043659 | 57 | 293 | 0.0 | 0.0 | 0.00 | 0.00 | 0.00 | 75 | 1015.1 |
| 20260507043154 | 57 | 338 | 1.7 | 1.7 | 0.00 | 0.00 | 0.00 | 74 | 1015.1 |
| 20260507042629 | 57 | 338 | 1.7 | 1.7 | 0.00 | 0.00 | 0.00 | 73 | 1015.1 |
| 20260507042124 | 57 | 68 | 0.9 | 0.9 | 0.00 | 0.00 | 0.00 | 73 | 1015.1 |
| 20260507041619 | 57 | 270 | 1.7 | 1.7 | 0.00 | 0.00 | 0.00 | 73 | 1015.1 |
| 20260507041114 | 57 | 315 | 1.7 | 1.7 | 0.00 | 0.00 | 0.00 | 73 | 1015.1 |
| 20260507040609 | 57 | 203 | 0.9 | 0.9 | 0.00 | 0.00 | 0.00 | 72 | 1015.1 |
| 20260507040059 | 57 | 113 | 0.9 | 0.9 | 0.00 | 0.00 | 0.00 | 73 | 1014.8 |
| 20260507035554 | 57 | 158 | 0.9 | 0.9 | 0.00 | 0.00 | 0.00 | 73 | 1014.8 |
| 20260507035049 | 57 | 45 | 0.9 | 0.9 | 0.00 | 0.00 | 0.00 | 73 | 1014.8 |
| 20260507034544 | 58 | 135 | 0.0 | 0.0 | 0.00 | 0.00 | 0.00 | 70 | 1014.5 |
| 20260507034039 | 58 | 180 | 0.0 | 0.0 | 0.00 | 0.00 | 0.00 | 70 | 1014.5 |
| 20260507033024 | 58 | 180 | 0.0 | 0.0 | 0.00 | 0.00 | 0.00 | 69 | 1014.7 |
| 20260507032014 | 58 | 0 | 1.7 | 1.7 | 0.00 | 0.00 | 0.00 | 68 | 1014.5 |
| 20260507031509 | 58 | 315 | 1.7 | 1.7 | 0.00 | 0.00 | 0.00 | 68 | 1014.0 |
| 20260507030959 | 59 | 248 | 2.6 | 2.6 | 0.00 | 0.00 | 0.00 | 68 | 1014.0 |
| 20260507030454 | 59 | 338 | 3.5 | 3.5 | 0.00 | 0.00 | 0.00 | 66 | 1014.0 |
| 20260507025949 | 59 | 338 | 4.3 | 4.3 | 0.00 | 0.00 | 0.00 | 67 | 1014.2 |
| 20260507025444 | 59 | 270 | 4.3 | 4.3 | 0.00 | 0.00 | 0.00 | 67 | 1014.2 |
| 20260507024939 | 59 | 0 | 4.3 | 4.3 | 0.00 | 0.00 | 0.00 | 67 | 1014.2 |
| 20260507023925 | 59 | 338 | 4.3 | 4.3 | 0.00 | 0.00 | 0.00 | 66 | 1014.2 |
| 20260507023419 | 59 | 315 | 3.5 | 3.5 | 0.00 | 0.00 | 0.00 | 67 | 1014.0 |
| 20260507022914 | 59 | 23 | 4.3 | 4.3 | 0.00 | 0.00 | 0.00 | 68 | 1014.0 |
| 20260507022409 | 59 | 338 | 5.2 | 5.2 | 0.00 | 0.00 | 0.00 | 69 | 1014.1 |
| 20260507021859 | 59 | 293 | 3.5 | 3.5 | 0.00 | 0.00 | 0.00 | 70 | 1014.1 |
| 20260507021355 | 59 | 270 | 4.3 | 4.3 | 0.00 | 0.00 | 0.00 | 68 | 1013.9 |
| 20260507020849 | 59 | 338 | 3.5 | 3.5 | 0.00 | 0.00 | 0.00 | 65 | 1013.9 |
| 20260507020344 | 59 | 315 | 4.3 | 4.3 | 0.00 | 0.00 | 0.00 | 66 | 1013.9 |
| 20260507014824 | 60 | 270 | 3.5 | 3.5 | 0.00 | 0.00 | 0.00 | 69 | 1013.9 |
| 20260507014319 | 60 | 225 | 4.3 | 4.3 | 0.00 | 0.00 | 0.00 | 68 | 1013.9 |
| 20260507013814 | 60 | 270 | 5.2 | 5.2 | 0.00 | 0.00 | 0.00 | 67 | 1013.8 |
| 20260507013304 | 60 | 248 | 3.5 | 3.5 | 0.00 | 0.00 | 0.00 | 67 | 1013.8 |
| 20260507012759 | 60 | 225 | 4.3 | 4.3 | 0.00 | 0.00 | 0.00 | 66 | 1013.8 |
| 20260507012254 | 61 | 270 | 5.2 | 5.2 | 0.00 | 0.00 | 0.00 | 64 | 1013.8 |
| 20260507011749 | 61 | 338 | 4.3 | 4.3 | 0.00 | 0.00 | 0.00 | 63 | 1013.8 |
| 20260507011244 | 61 | 248 | 6.1 | 6.1 | 0.00 | 0.00 | 0.00 | 63 | 1013.7 |
| 20260507010734 | 61 | 293 | 5.2 | 5.2 | 0.00 | 0.00 | 0.00 | 65 | 1013.7 |
| 20260507010229 | 62 | 315 | 5.2 | 5.2 | 0.00 | 0.00 | 0.00 | 64 | 1013.7 |
| 20260507005724 | 62 | 315 | 4.3 | 4.3 | 0.00 | 0.00 | 0.00 | 63 | 1013.7 |
| 20260507005219 | 63 | 293 | 5.2 | 5.2 | 0.00 | 0.00 | 0.00 | 62 | 1013.7 |
| 20260507004710 | 63 | 0 | 5.2 | 5.2 | 0.00 | 0.00 | 0.00 | 62 | 1013.7 |
| 20260507004205 | 63 | 315 | 4.3 | 4.3 | 0.00 | 0.00 | 0.00 | 64 | 1013.7 |
| 20260507003659 | 63 | 225 | 3.5 | 3.5 | 0.00 | 0.00 | 0.00 | 64 | 1013.7 |
| 20260507003154 | 63 | 248 | 3.5 | 3.5 | 0.00 | 0.00 | 0.00 | 62 | 1013.7 |
| 20260507002139 | 64 | 293 | 5.2 | 5.2 | 0.00 | 0.00 | 0.00 | 64 | 1013.7 |
| 20260507001635 | 64 | 0 | 4.3 | 4.3 | 0.00 | 0.00 | 0.00 | 62 | 1013.7 |
| 20260507001129 | 64 | 225 | 6.1 | 6.1 | 0.00 | 0.00 | 0.00 | 61 | 1013.6 |
| 20260507000625 | 64 | 315 | 4.3 | 4.3 | 0.00 | 0.00 | 0.00 | 65 | 1013.6 |
| 20260507000119 | 64 | 0 | 4.3 | 4.3 | 0.00 | 0.00 | 0.00 | 65 | 1013.7 |
| 20260506235610 | 64 | 45 | 4.3 | 4.3 | 0.00 | 0.00 | 0.00 | 67 | 1013.7 |
| 20260506235105 | 64 | 0 | 4.3 | 4.3 | 0.00 | 0.00 | 0.00 | 67 | 1013.8 |
| 20260506234600 | 65 | 270 | 7.8 | 7.8 | 0.00 | 0.00 | 0.00 | 65 | 1013.8 |
| 20260506234055 | 66 | 315 | 7.0 | 7.0 | 0.00 | 0.00 | 0.00 | 61 | 1013.8 |
| 20260506233455 | 65 | 338 | 4.3 | 4.3 | 0.00 | 0.00 | 0.00 | 62 | 1013.8 |
| 20260506232949 | 65 | 270 | 4.3 | 4.3 | 0.00 | 0.00 | 0.00 | 61 | 1013.8 |
| 20260506231935 | 65 | 270 | 5.2 | 5.2 | 0.00 | 0.00 | 0.00 | 64 | 1013.8 |
| 20260506230925 | 66 | 270 | 6.1 | 6.1 | 0.00 | 0.00 | 0.00 | 61 | 1014.0 |
| 20260506230415 | 66 | 0 | 5.2 | 5.2 | 0.00 | 0.00 | 0.00 | 61 | 1014.0 |
| 20260506225910 | 66 | 45 | 7.0 | 7.0 | 0.00 | 0.00 | 0.00 | 60 | 1014.1 |
| 20260506224900 | 66 | 180 | 5.2 | 5.2 | 0.00 | 0.00 | 0.00 | 59 | 1014.3 |
| 20260506224355 | 66 | 248 | 5.2 | 5.2 | 0.00 | 0.00 | 0.00 | 60 | 1014.3 |
| 20260506223750 | 66 | 225 | 6.1 | 6.1 | 0.00 | 0.00 | 0.00 | 60 | 1014.4 |
| 20260506223230 | 67 | 225 | 7.0 | 7.0 | 0.00 | 0.00 | 0.00 | 59 | 1014.4 |
| 20260506222215 | 67 | 338 | 6.1 | 6.1 | 0.00 | 0.00 | 0.00 | 55 | 1014.6 |
| 20260506221710 | 67 | 225 | 5.2 | 5.2 | 0.00 | 0.00 | 0.00 | 54 | 1014.6 |
| 20260506221205 | 67 | 293 | 7.8 | 7.8 | 0.00 | 0.00 | 0.00 | 52 | 1014.8 |
| 20260506220700 | 66 | 180 | 4.3 | 4.3 | 0.00 | 0.00 | 0.00 | 55 | 1014.8 |
| 20260506220150 | 68 | 248 | 5.2 | 5.2 | 0.00 | 0.00 | 0.00 | 54 | 1014.9 |
| 20260506215645 | 68 | 180 | 5.2 | 5.2 | 0.00 | 0.00 | 0.00 | 52 | 1014.9 |
| 20260506215140 | 68 | 248 | 5.2 | 5.2 | 0.00 | 0.00 | 0.00 | 52 | 1014.9 |
| 20260506214635 | 68 | 293 | 4.3 | 4.3 | 0.00 | 0.00 | 0.00 | 50 | 1015.0 |
| 20260506212105 | 67 | 113 | 4.3 | 4.3 | 0.00 | 0.00 | 0.00 | 57 | 1015.1 |
| 20260506211600 | 67 | 225 | 4.3 | 4.3 | 0.00 | 0.00 | 0.00 | 58 | 1015.1 |
| 20260506211050 | 67 | 338 | 5.2 | 5.2 | 0.00 | 0.00 | 0.00 | 59 | 1015.3 |
| 20260506210545 | 66 | 135 | 4.3 | 4.3 | 0.00 | 0.00 | 0.00 | 57 | 1015.3 |
| 20260506210040 | 66 | 158 | 5.2 | 5.2 | 0.00 | 0.00 | 0.00 | 55 | 1015.2 |
| 20260506205535 | 67 | 158 | 3.5 | 3.5 | 0.00 | 0.00 | 0.00 | 53 | 1015.2 |
| 20260506204520 | 64 | 203 | 4.3 | 4.3 | 0.00 | 0.00 | 0.00 | 53 | 1015.3 |
| 20260506204015 | 65 | 180 | 5.2 | 5.2 | 0.00 | 0.00 | 0.00 | 53 | 1015.3 |
| 20260506203005 | 65 | 203 | 5.2 | 5.2 | 0.00 | 0.00 | 0.00 | 53 | 1015.5 |
| 20260506202455 | 66 | 135 | 3.5 | 3.5 | 0.00 | 0.00 | 0.00 | 53 | 1015.6 |
| 20260506201950 | 65 | 158 | 5.2 | 5.2 | 0.00 | 0.00 | 0.00 | 53 | 1015.6 |
| 20260506201445 | 66 | 158 | 5.2 | 5.2 | 0.00 | 0.00 | 0.00 | 53 | 1015.8 |
| 20260506200940 | 65 | 225 | 3.5 | 3.5 | 0.00 | 0.00 | 0.00 | 56 | 1015.8 |
| 20260506200435 | 65 | 180 | 6.1 | 6.1 | 0.00 | 0.00 | 0.00 | 56 | 1015.8 |
| 20260506194915 | 66 | 158 | 4.3 | 4.3 | 0.00 | 0.00 | 0.00 | 50 | 1015.9 |
| 20260506194410 | 66 | 225 | 3.5 | 3.5 | 0.00 | 0.00 | 0.00 | 52 | 1015.9 |
| 20260506193355 | 65 | 113 | 5.2 | 5.2 | 0.00 | 0.00 | 0.00 | 52 | 1016.1 |
| 20260506192850 | 64 | 135 | 6.1 | 6.1 | 0.00 | 0.00 | 0.00 | 56 | 1016.1 |
| 20260506192345 | 67 | 90 | 4.3 | 4.3 | 0.00 | 0.00 | 0.00 | 51 | 1016.1 |
| 20260506191840 | 68 | 90 | 4.3 | 4.3 | 0.00 | 0.00 | 0.00 | 51 | 1016.1 |
| 20260506191315 | 67 | 203 | 6.1 | 6.1 | 0.00 | 0.00 | 0.00 | 52 | 1016.2 |
| 20260506190805 | 66 | 158 | 5.2 | 5.2 | 0.00 | 0.00 | 0.00 | 53 | 1016.2 |
| 20260506190205 | 66 | 158 | 6.1 | 6.1 | 0.00 | 0.00 | 0.00 | 52 | 1016.2 |
| 20260506185625 | 66 | 158 | 7.0 | 7.0 | 0.00 | 0.00 | 0.00 | 53 | 1016.2 |
| 20260506184950 | 66 | 113 | 3.5 | 3.5 | 0.00 | 0.00 | 0.00 | 54 | 1016.4 |
| 20260506184445 | 66 | 180 | 5.2 | 5.2 | 0.00 | 0.00 | 0.00 | 54 | 1016.4 |
| 20260506183935 | 66 | 90 | 5.2 | 5.2 | 0.00 | 0.00 | 0.00 | 57 | 1016.4 |
| 20260506182905 | 67 | 113 | 4.3 | 4.3 | 0.00 | 0.00 | 0.00 | 57 | 1016.4 |
| 20260506182325 | 66 | 113 | 6.1 | 6.1 | 0.00 | 0.00 | 0.00 | 59 | 1016.4 |
| 20260506181820 | 67 | 135 | 7.0 | 7.0 | 0.00 | 0.00 | 0.00 | 56 | 1016.4 |
| 20260506181315 | 66 | 203 | 5.2 | 5.2 | 0.00 | 0.00 | 0.00 | 58 | 1016.5 |
| 20260506180805 | 66 | 203 | 4.3 | 4.3 | 0.00 | 0.00 | 0.00 | 57 | 1016.5 |
| 20260506180300 | 66 | 113 | 4.3 | 4.3 | 0.00 | 0.00 | 0.00 | 57 | 1016.5 |
| 20260506175755 | 65 | 135 | 6.1 | 6.1 | 0.00 | 0.00 | 0.00 | 59 | 1016.4 |
| 20260506175250 | 64 | 180 | 4.3 | 4.3 | 0.00 | 0.00 | 0.00 | 59 | 1016.4 |
| 20260506174235 | 63 | 225 | 5.2 | 5.2 | 0.00 | 0.00 | 0.00 | 62 | 1016.4 |
| 20260506173225 | 65 | 158 | 5.2 | 5.2 | 0.00 | 0.00 | 0.00 | 59 | 1016.3 |
| 20260506172720 | 64 | 135 | 3.5 | 3.5 | 0.00 | 0.00 | 0.00 | 61 | 1016.3 |
| 20260506172210 | 64 | 68 | 5.2 | 5.2 | 0.00 | 0.00 | 0.00 | 62 | 1016.4 |
| 20260506171200 | 65 | 203 | 5.2 | 5.2 | 0.00 | 0.00 | 0.00 | 60 | 1016.2 |
| 20260506170655 | 63 | 180 | 4.3 | 4.3 | 0.00 | 0.00 | 0.00 | 63 | 1016.2 |
| 20260506170150 | 64 | 113 | 4.3 | 4.3 | 0.00 | 0.00 | 0.00 | 61 | 1016.2 |
| 20260506165640 | 64 | 135 | 5.2 | 5.2 | 0.00 | 0.00 | 0.00 | 60 | 1016.2 |
| 20260506165135 | 62 | 158 | 4.3 | 4.3 | 0.00 | 0.00 | 0.00 | 63 | 1016.2 |
| 20260506164630 | 65 | 158 | 4.3 | 4.3 | 0.00 | 0.00 | 0.00 | 60 | 1016.2 |
| 20260506164125 | 65 | 113 | 3.5 | 3.5 | 0.00 | 0.00 | 0.00 | 62 | 1016.2 |
| 20260506163615 | 64 | 113 | 4.3 | 4.3 | 0.00 | 0.00 | 0.00 | 63 | 1016.1 |
| 20260506162605 | 63 | 180 | 1.7 | 1.7 | 0.00 | 0.00 | 0.00 | 65 | 1016.0 |
| 20260506162100 | 62 | 180 | 3.5 | 3.5 | 0.00 | 0.00 | 0.00 | 67 | 1016.0 |
| 20260506161555 | 62 | 113 | 4.3 | 4.3 | 0.00 | 0.00 | 0.00 | 66 | 1016.0 |
| 20260506161045 | 63 | 113 | 2.6 | 2.6 | 0.00 | 0.00 | 0.00 | 66 | 1016.1 |
| 20260506160540 | 61 | 180 | 4.3 | 4.3 | 0.00 | 0.00 | 0.00 | 67 | 1016.1 |
| 20260506155026 | 62 | 113 | 3.5 | 3.5 | 0.00 | 0.00 | 0.00 | 69 | 1016.0 |
| 20260506154515 | 61 | 90 | 4.3 | 4.3 | 0.00 | 0.00 | 0.00 | 72 | 1016.0 |
| 20260506154010 | 62 | 113 | 3.5 | 3.5 | 0.00 | 0.00 | 0.00 | 72 | 1016.0 |
| 20260506153000 | 60 | 158 | 3.5 | 3.5 | 0.00 | 0.00 | 0.00 | 74 | 1016.1 |
| 20260506152455 | 60 | 113 | 3.5 | 3.5 | 0.00 | 0.00 | 0.00 | 73 | 1016.2 |
| 20260506151950 | 60 | 113 | 2.6 | 2.6 | 0.00 | 0.00 | 0.00 | 76 | 1016.2 |
| 20260506151440 | 60 | 113 | 1.7 | 1.7 | 0.00 | 0.00 | 0.00 | 75 | 1016.0 |
| 20260506150935 | 60 | 158 | 2.6 | 2.6 | 0.00 | 0.00 | 0.00 | 77 | 1016.0 |
| 20260506145925 | 59 | 135 | 3.5 | 3.5 | 0.00 | 0.00 | 0.00 | 79 | 1016.2 |
| 20260506145420 | 58 | 158 | 3.5 | 3.5 | 0.00 | 0.00 | 0.00 | 83 | 1016.2 |
| 20260506144910 | 59 | 135 | 2.6 | 2.6 | 0.00 | 0.00 | 0.00 | 81 | 1016.0 |
| 20260506144405 | 58 | 203 | 2.6 | 2.6 | 0.00 | 0.00 | 0.00 | 83 | 1016.0 |
| 20260506143901 | 57 | 113 | 2.6 | 2.6 | 0.00 | 0.00 | 0.00 | 85 | 1016.0 |
| 20260506143355 | 57 | 158 | 2.6 | 2.6 | 0.00 | 0.00 | 0.00 | 84 | 1015.8 |
| 20260506142831 | 58 | 180 | 2.6 | 2.6 | 0.00 | 0.00 | 0.00 | 83 | 1015.8 |
| 20260506141311 | 56 | 113 | 1.7 | 1.7 | 0.00 | 0.00 | 0.00 | 87 | 1015.8 |
| 20260506140806 | 56 | 270 | 2.6 | 2.6 | 0.00 | 0.00 | 0.00 | 88 | 1015.8 |
| 20260506135750 | 55 | 135 | 2.6 | 2.6 | 0.00 | 0.00 | 0.00 | 88 | 1015.8 |
| 20260506135246 | 55 | 180 | 1.7 | 1.7 | 0.00 | 0.00 | 0.00 | 89 | 1015.8 |
| 20260506134741 | 55 | 158 | 2.6 | 2.6 | 0.00 | 0.00 | 0.00 | 89 | 1015.7 |
| 20260506134236 | 55 | 135 | 1.7 | 1.7 | 0.00 | 0.00 | 0.00 | 89 | 1015.7 |
| 20260506133730 | 54 | 135 | 2.6 | 2.6 | 0.00 | 0.00 | 0.00 | 91 | 1015.7 |
| 20260506132716 | 53 | 180 | 2.6 | 2.6 | 0.00 | 0.00 | 0.00 | 91 | 1015.7 |
| 20260506132211 | 53 | 158 | 2.6 | 2.6 | 0.00 | 0.00 | 0.00 | 92 | 1015.5 |
| 20260506131706 | 53 | 158 | 3.5 | 3.5 | 0.00 | 0.00 | 0.00 | 92 | 1015.5 |
| 20260506131201 | 53 | 158 | 3.5 | 3.5 | 0.00 | 0.00 | 0.00 | 92 | 1015.5 |
| 20260506130651 | 53 | 113 | 3.5 | 3.5 | 0.00 | 0.00 | 0.00 | 92 | 1015.5 |
| 20260506130146 | 53 | 158 | 2.6 | 2.6 | 0.00 | 0.00 | 0.00 | 92 | 1015.3 |
| 20260506125641 | 53 | 180 | 2.6 | 2.6 | 0.00 | 0.00 | 0.00 | 92 | 1015.3 |
| 20260506124911 | 53 | 180 | 2.6 | 2.6 | 0.00 | 0.00 | 0.00 | 92 | 1015.1 |
| 20260506124406 | 53 | 180 | 2.6 | 2.6 | 0.00 | 0.00 | 0.00 | 92 | 1015.1 |
| 20260506123901 | 53 | 180 | 2.6 | 2.6 | 0.00 | 0.00 | 0.00 | 92 | 1015.1 |
| 20260506122341 | 53 | 180 | 2.6 | 2.6 | 0.00 | 0.00 | 0.00 | 92 | 1015.0 |
| 20260506121836 | 53 | 180 | 2.6 | 2.6 | 0.00 | 0.00 | 0.00 | 91 | 1015.0 |
| 20260506121330 | 53 | 180 | 2.6 | 2.6 | 0.00 | 0.00 | 0.00 | 91 | 1015.1 |
| 20260506120316 | 52 | 180 | 1.7 | 1.7 | 0.00 | 0.00 | 0.00 | 91 | 1015.1 |
| 20260506115811 | 52 | 203 | 3.5 | 3.5 | 0.00 | 0.00 | 0.00 | 91 | 1014.9 |
| 20260506115307 | 52 | 180 | 3.5 | 3.5 | 0.00 | 0.00 | 0.00 | 91 | 1014.9 |
| 20260506113241 | 51 | 293 | 0.0 | 0.0 | 0.00 | 0.00 | 0.00 | 91 | 1015.0 |
| 20260506112736 | 51 | 270 | 0.9 | 0.9 | 0.00 | 0.00 | 0.00 | 91 | 1015.0 |
| 20260506112231 | 50 | 293 | 0.0 | 0.0 | 0.00 | 0.00 | 0.00 | 90 | 1014.8 |
| 20260506111721 | 51 | 315 | 0.0 | 0.0 | 0.00 | 0.00 | 0.00 | 90 | 1014.8 |
| 20260506111216 | 51 | 293 | 0.0 | 0.0 | 0.00 | 0.00 | 0.00 | 90 | 1014.7 |
| 20260506110711 | 51 | 270 | 0.0 | 0.0 | 0.00 | 0.00 | 0.00 | 89 | 1014.7 |
| 20260506110206 | 51 | 270 | 0.0 | 0.0 | 0.00 | 0.00 | 0.00 | 89 | 1014.8 |
| 20260506105656 | 51 | 293 | 0.0 | 0.0 | 0.00 | 0.00 | 0.00 | 89 | 1014.8 |
| 20260506104646 | 51 | 315 | 0.0 | 0.0 | 0.00 | 0.00 | 0.00 | 89 | 1014.9 |
| 20260506103636 | 51 | 293 | 0.0 | 0.0 | 0.00 | 0.00 | 0.00 | 88 | 1014.7 |
| 20260506103126 | 51 | 338 | 0.0 | 0.0 | 0.00 | 0.00 | 0.00 | 88 | 1014.7 |
| 20260506102621 | 51 | 315 | 0.0 | 0.0 | 0.00 | 0.00 | 0.00 | 87 | 1014.7 |
| 20260506101611 | 51 | 315 | 0.0 | 0.0 | 0.00 | 0.00 | 0.00 | 87 | 1014.7 |
| 20260506101106 | 51 | 293 | 0.0 | 0.0 | 0.00 | 0.00 | 0.00 | 86 | 1014.8 |
| 20260506100556 | 51 | 315 | 0.0 | 0.0 | 0.00 | 0.00 | 0.00 | 85 | 1014.8 |
| 20260506100051 | 51 | 338 | 0.0 | 0.0 | 0.00 | 0.00 | 0.00 | 84 | 1014.9 |